Time;durP1;ratioP1;P1;durP2;ratioP2;P2;SDS_P1;SDS_P2;PMS_P1;PMS_P2;Temp;Humidity;BMP_temperature;BMP_pressure;BME280_temperature;BME280_humidity;BME280_pressure;Samples;Min_cycle;Max_cycle;Signal;HPM_P1;HPM_P2
2024/01/04 00:00:14;;;;;;;14.73;11.85;;;10.00;99.90;;;;;;5028151;29;20029;-71
2024/01/04 00:02:45;;;;;;;18.05;11.02;;;10.10;99.90;;;;;;5028493;29;20372;-70
2024/01/04 00:05:16;;;;;;;13.27;11.23;;;9.90;99.90;;;;;;5028110;29;20017;-69
2024/01/04 00:07:47;;;;;;;13.23;11.13;;;9.90;99.90;;;;;;5027142;29;20037;-73
2024/01/04 00:10:18;;;;;;;15.63;11.27;;;10.00;99.90;;;;;;5026290;29;20104;-70
2024/01/04 00:12:51;;;;;;;13.02;11.68;;;9.80;99.90;;;;;;5026284;29;20522;-71
2024/01/04 00:15:22;;;;;;;12.15;10.95;;;9.80;99.90;;;;;;5027322;29;20032;-71
2024/01/04 00:17:53;;;;;;;13.63;12.10;;;9.90;99.90;;;;;;5027075;29;20418;-71
2024/01/04 00:20:24;;;;;;;17.50;12.30;;;9.80;99.90;;;;;;5027525;29;20057;-70
2024/01/04 00:22:55;;;;;;;13.40;12.00;;;9.80;99.90;;;;;;5028065;29;20030;-71
2024/01/04 00:25:26;;;;;;;14.82;12.57;;;9.80;99.90;;;;;;5028403;29;20033;-69
2024/01/04 00:27:57;;;;;;;14.05;12.27;;;9.80;99.90;;;;;;5026835;29;20422;-69
2024/01/04 00:30:28;;;;;;;16.52;12.73;;;9.80;99.90;;;;;;5027940;29;20029;-69
2024/01/04 00:32:59;;;;;;;13.98;12.65;;;9.80;99.90;;;;;;5028212;29;20069;-69
2024/01/04 00:35:30;;;;;;;13.82;12.25;;;9.80;99.90;;;;;;5026751;29;20435;-73
2024/01/04 00:38:01;;;;;;;17.33;12.07;;;9.80;99.90;;;;;;5027615;29;20081;-69
2024/01/04 00:40:33;;;;;;;15.00;11.65;;;9.90;99.90;;;;;;5028074;29;20403;-71
2024/01/04 00:43:04;;;;;;;15.77;11.65;;;9.80;99.90;;;;;;5027832;29;20032;-73
2024/01/04 00:45:34;;;;;;;15.00;11.45;;;9.70;99.90;;;;;;5027961;29;20479;-73
2024/01/04 00:48:06;;;;;;;16.50;10.70;;;9.90;99.90;;;;;;5027977;29;20033;-69
2024/01/04 00:50:37;;;;;;;18.17;11.82;;;9.90;99.90;;;;;;5026274;29;20025;-69
2024/01/04 00:53:08;;;;;;;13.55;11.60;;;9.90;99.90;;;;;;5027696;29;20040;-71
2024/01/04 00:55:38;;;;;;;11.50;10.32;;;9.80;99.90;;;;;;5027499;29;20026;-73
2024/01/04 00:58:09;;;;;;;12.10;10.23;;;9.80;99.90;;;;;;5027392;29;20833;-70
2024/01/04 01:00:41;;;;;;;14.50;12.25;;;9.90;99.90;;;;;;5027073;29;20058;-71
2024/01/04 01:03:11;;;;;;;17.13;10.73;;;10.10;99.90;;;;;;5026706;29;20026;-73
2024/01/04 01:05:42;;;;;;;15.63;10.60;;;9.90;99.90;;;;;;5026385;29;20098;-73
2024/01/04 01:08:13;;;;;;;16.33;11.82;;;9.80;99.90;;;;;;5025951;29;20048;-71
2024/01/04 01:10:44;;;;;;;14.27;11.32;;;9.70;99.90;;;;;;5026184;29;20085;-71
2024/01/04 01:13:20;;;;;;;14.52;11.70;;;9.80;99.90;;;;;;5026248;29;20042;-71
2024/01/04 01:15:51;;;;;;;12.95;11.45;;;10.10;99.90;;;;;;5025004;29;20085;-69
2024/01/04 01:18:21;;;;;;;16.63;11.27;;;9.90;99.90;;;;;;5026333;29;20041;-70
2024/01/04 01:20:54;;;;;;;13.45;12.10;;;9.90;99.90;;;;;;5027056;29;20017;-70
2024/01/04 01:23:25;;;;;;;12.82;10.95;;;10.00;99.90;;;;;;5026845;29;20057;-72
2024/01/04 01:25:56;;;;;;;15.00;11.70;;;9.80;99.90;;;;;;5027171;29;20060;-69
2024/01/04 01:28:27;;;;;;;14.75;11.32;;;9.80;99.90;;;;;;5026639;29;20441;-69
2024/01/04 01:31:01;;;;;;;14.40;11.32;;;9.70;99.90;;;;;;5026753;29;20072;-69
2024/01/04 01:33:32;;;;;;;17.15;12.15;;;9.90;99.90;;;;;;5026982;29;20037;-70
2024/01/04 01:36:06;;;;;;;14.68;11.43;;;9.80;99.90;;;;;;5026800;29;20509;-69
2024/01/04 01:38:38;;;;;;;15.57;12.45;;;9.80;99.90;;;;;;5026573;29;20664;-70
2024/01/04 01:41:09;;;;;;;16.42;12.30;;;9.70;99.90;;;;;;5026651;29;20085;-70
2024/01/04 01:43:40;;;;;;;14.15;12.60;;;9.70;99.90;;;;;;5026364;29;20041;-71
2024/01/04 01:46:10;;;;;;;14.13;11.88;;;9.70;99.90;;;;;;5026580;29;20521;-69
2024/01/04 01:48:41;;;;;;;18.52;12.38;;;9.50;99.90;;;;;;5026626;29;20029;-71
2024/01/04 01:51:13;;;;;;;13.43;11.07;;;9.40;99.90;;;;;;5026576;29;20059;-74
2024/01/04 01:53:45;;;;;;;11.57;10.38;;;9.50;99.90;;;;;;5026572;29;20116;-70
2024/01/04 01:56:16;;;;;;;12.57;10.15;;;9.50;99.90;;;;;;5025860;29;20470;-72
2024/01/04 01:58:48;;;;;;;11.57;9.98;;;9.50;99.90;;;;;;5025927;29;20096;-73
2024/01/04 02:01:19;;;;;;;14.82;10.30;;;9.50;99.90;;;;;;5025233;29;20037;-70
2024/01/04 02:03:50;;;;;;;11.23;10.13;;;9.50;99.90;;;;;;5025307;29;20033;-70
2024/01/04 02:06:21;;;;;;;14.02;10.82;;;9.50;99.90;;;;;;5025323;29;20037;-71
2024/01/04 02:08:52;;;;;;;12.32;10.32;;;9.50;99.90;;;;;;5025126;29;20889;-69
2024/01/04 02:11:23;;;;;;;13.57;10.70;;;9.40;99.90;;;;;;5025093;29;20152;-70
2024/01/04 02:13:54;;;;;;;13.52;10.93;;;9.30;99.90;;;;;;5024092;29;20037;-72
2024/01/04 02:16:25;;;;;;;13.52;12.23;;;9.40;99.90;;;;;;5026151;29;20041;-69
2024/01/04 02:18:56;;;;;;;15.52;13.70;;;9.40;99.90;;;;;;5026000;29;20041;-69
2024/01/04 02:21:27;;;;;;;13.02;11.68;;;9.30;99.90;;;;;;5025947;29;20032;-69
2024/01/04 02:23:57;;;;;;;13.80;12.32;;;9.10;99.90;;;;;;5025994;29;20029;-69
2024/01/04 02:26:28;;;;;;;14.98;13.65;;;9.00;99.90;;;;;;5026293;29;20038;-69
2024/01/04 02:28:59;;;;;;;16.85;14.93;;;9.00;99.90;;;;;;5026037;29;20064;-72
2024/01/04 02:31:30;;;;;;;17.98;14.90;;;9.10;99.90;;;;;;5025897;29;20033;-70
2024/01/04 02:34:01;;;;;;;15.13;12.85;;;8.90;99.90;;;;;;5025936;29;20037;-69
2024/01/04 02:36:32;;;;;;;15.27;13.85;;;8.70;99.90;;;;;;5025829;29;20088;-72
2024/01/04 02:39:04;;;;;;;15.02;13.50;;;8.70;99.90;;;;;;5025792;29;20476;-69
2024/01/04 02:41:35;;;;;;;16.60;14.82;;;8.60;99.90;;;;;;5025763;29;20030;-74
2024/01/04 02:44:06;;;;;;;19.42;16.38;;;8.90;99.90;;;;;;5025926;29;20449;-71
2024/01/04 02:46:37;;;;;;;17.52;15.68;;;9.00;99.90;;;;;;5025965;29;20114;-68
2024/01/04 02:49:07;;;;;;;17.10;14.15;;;9.10;99.90;;;;;;5025751;29;20076;-72
2024/01/04 02:51:38;;;;;;;14.98;13.45;;;9.10;99.90;;;;;;5023909;29;20034;-72
2024/01/04 02:54:10;;;;;;;16.75;14.15;;;9.10;99.90;;;;;;5026123;29;20517;-71
2024/01/04 02:56:41;;;;;;;15.65;13.98;;;9.00;99.90;;;;;;5028883;29;20391;-69
2024/01/04 02:59:11;;;;;;;16.85;13.32;;;9.00;99.90;;;;;;5028636;29;20040;-69
2024/01/04 03:01:48;;;;;;;19.05;14.55;;;8.90;99.90;;;;;;5028641;29;20522;-74
2024/01/04 03:04:19;;;;;;;17.13;13.15;;;8.60;99.90;;;;;;5028920;29;20479;-73
2024/01/04 03:06:50;;;;;;;17.17;12.52;;;8.80;99.90;;;;;;5028419;29;20050;-72
2024/01/04 03:09:21;;;;;;;12.85;10.73;;;8.60;99.90;;;;;;5028690;29;20045;-72
2024/01/04 03:11:52;;;;;;;15.45;12.35;;;8.60;99.90;;;;;;5029450;29;20029;-69
2024/01/04 03:14:23;;;;;;;16.75;11.57;;;8.60;99.90;;;;;;5028159;29;20048;-68
2024/01/04 03:16:53;;;;;;;11.43;10.20;;;8.70;99.90;;;;;;5029285;29;20038;-72
2024/01/04 03:19:24;;;;;;;12.35;11.15;;;8.70;99.90;;;;;;5029218;29;20479;-70
2024/01/04 03:21:55;;;;;;;11.60;10.40;;;8.70;99.90;;;;;;5029280;29;20029;-70
2024/01/04 03:24:26;;;;;;;13.65;12.35;;;8.40;99.90;;;;;;5029298;29;20041;-70
2024/01/04 03:26:57;;;;;;;13.45;12.18;;;8.50;99.90;;;;;;5029141;29;20093;-73
2024/01/04 03:29:28;;;;;;;13.77;12.50;;;8.40;99.90;;;;;;5028945;29;20033;-69
2024/01/04 03:31:59;;;;;;;15.27;13.63;;;8.30;99.90;;;;;;5028798;29;20483;-70
2024/01/04 03:34:29;;;;;;;15.65;14.15;;;8.20;99.90;;;;;;5029002;29;20037;-73
2024/01/04 03:37:00;;;;;;;12.73;11.38;;;8.30;99.90;;;;;;5028840;29;20411;-70
2024/01/04 03:39:31;;;;;;;15.80;14.23;;;8.20;99.90;;;;;;5028313;29;20472;-71
2024/01/04 03:42:02;;;;;;;16.20;14.35;;;8.00;99.90;;;;;;5028866;29;20105;-70
2024/01/04 03:44:33;;;;;;;13.43;12.32;;;8.10;99.90;;;;;;5028890;29;20423;-72
2024/01/04 03:47:04;;;;;;;16.08;13.13;;;8.30;99.90;;;;;;5028483;29;20089;-72
2024/01/04 03:49:35;;;;;;;13.95;12.77;;;8.10;99.90;;;;;;5028688;29;20086;-71
2024/01/04 03:52:06;;;;;;;14.07;12.60;;;8.30;99.90;;;;;;5027791;29;20022;-73
2024/01/04 03:54:37;;;;;;;14.77;13.05;;;8.00;99.90;;;;;;5027944;29;20057;-69
2024/01/04 03:57:08;;;;;;;15.82;14.32;;;8.00;99.90;;;;;;5027696;29;20041;-71
2024/01/04 03:59:39;;;;;;;17.17;15.68;;;8.00;99.90;;;;;;5026479;29;20033;-69
2024/01/04 04:02:10;;;;;;;14.75;13.25;;;8.00;99.90;;;;;;5027605;29;20355;-70
2024/01/04 04:04:41;;;;;;;15.75;14.10;;;8.10;99.90;;;;;;5027631;29;20470;-70
2024/01/04 04:07:12;;;;;;;17.45;14.25;;;8.00;99.90;;;;;;5464874;23;20145;-72
2024/01/04 04:09:42;;;;;;;14.00;12.50;;;7.90;99.90;;;;;;5027165;29;20495;-71
2024/01/04 04:12:13;;;;;;;13.90;12.70;;;8.00;99.90;;;;;;5028460;29;20142;-71
2024/01/04 04:14:44;;;;;;;13.65;12.32;;;7.90;99.90;;;;;;5028177;29;20036;-69
2024/01/04 04:17:18;;;;;;;14.57;12.98;;;7.80;99.90;;;;;;5028200;29;20120;-74
2024/01/04 04:19:49;;;;;;;16.25;13.55;;;7.70;99.90;;;;;;5028526;29;20702;-73
2024/01/04 04:22:19;;;;;;;16.17;12.25;;;7.60;99.90;;;;;;5028227;29;20033;-72
2024/01/04 04:24:50;;;;;;;15.77;14.38;;;7.60;99.90;;;;;;5024498;29;20061;-70
2024/01/04 04:27:21;;;;;;;16.92;15.25;;;7.60;99.90;;;;;;5007670;29;20046;-73
2024/01/04 04:29:52;;;;;;;13.80;12.50;;;7.50;99.90;;;;;;5008889;29;20026;-69
2024/01/04 04:32:23;;;;;;;15.68;14.13;;;7.60;99.90;;;;;;5009020;29;20798;-68
2024/01/04 04:34:54;;;;;;;14.45;12.93;;;7.40;99.90;;;;;;5009072;29;20034;-71
2024/01/04 04:37:25;;;;;;;14.40;12.70;;;7.50;99.90;;;;;;5008581;29;20060;-72
2024/01/04 04:39:56;;;;;;;15.73;12.27;;;7.40;99.90;;;;;;5008765;29;20089;-73
2024/01/04 04:42:27;;;;;;;13.50;12.20;;;7.40;99.90;;;;;;5008572;29;20034;-73
2024/01/04 04:44:59;;;;;;;12.30;11.05;;;7.40;99.90;;;;;;5008432;29;20852;-68
2024/01/04 04:47:30;;;;;;;14.73;13.43;;;7.20;99.90;;;;;;5007982;29;20036;-69
2024/01/04 04:50:01;;;;;;;15.55;14.13;;;7.40;99.90;;;;;;5007566;29;20025;-70
2024/01/04 04:52:31;;;;;;;13.70;12.65;;;7.40;99.90;;;;;;5008893;29;20030;-73
2024/01/04 04:55:03;;;;;;;14.13;12.98;;;7.30;99.90;;;;;;5007481;29;20045;-71
2024/01/04 04:57:33;;;;;;;15.40;13.88;;;7.10;99.90;;;;;;5007554;29;20077;-72
2024/01/04 05:00:05;;;;;;;14.02;12.60;;;7.10;99.90;;;;;;5007447;29;20038;-72
2024/01/04 05:02:36;;;;;;;16.00;14.60;;;7.10;99.90;;;;;;5007087;29;20479;-69
2024/01/04 05:05:07;;;;;;;15.18;13.13;;;7.10;99.90;;;;;;5008502;29;20132;-72
2024/01/04 05:07:38;;;;;;;12.57;11.48;;;7.00;99.90;;;;;;5008147;29;20101;-71
2024/01/04 05:10:09;;;;;;;13.38;12.13;;;7.00;99.90;;;;;;5008283;29;20084;-71
2024/01/04 05:12:40;;;;;;;14.95;12.90;;;7.10;99.90;;;;;;5008431;29;20053;-72
2024/01/04 05:15:11;;;;;;;14.93;13.75;;;7.00;99.90;;;;;;5008652;29;20038;-69
2024/01/04 05:17:41;;;;;;;15.55;14.15;;;7.00;99.90;;;;;;5007474;29;20071;-73
2024/01/04 05:20:15;;;;;;;15.25;13.85;;;7.10;99.90;;;;;;5008071;29;20041;-69
2024/01/04 05:22:46;;;;;;;15.77;14.32;;;7.10;99.90;;;;;;5008229;29;20032;-69
2024/01/04 05:25:17;;;;;;;16.48;14.32;;;7.10;99.90;;;;;;5012927;29;20026;-69
2024/01/04 05:27:48;;;;;;;15.88;13.95;;;7.20;99.90;;;;;;5012641;29;20041;-68
2024/01/04 05:30:19;;;;;;;14.95;13.35;;;7.00;99.90;;;;;;5008302;29;20094;-71
2024/01/04 05:32:49;;;;;;;15.57;14.02;;;7.20;99.90;;;;;;5007650;29;20069;-71
2024/01/04 05:35:20;;;;;;;19.60;17.02;;;7.10;99.90;;;;;;5007796;29;20105;-69
2024/01/04 05:37:51;;;;;;;16.00;13.68;;;7.10;99.90;;;;;;5007508;29;20042;-72
2024/01/04 05:40:22;;;;;;;15.15;13.85;;;7.30;99.90;;;;;;5010661;29;20053;-74
2024/01/04 05:42:55;;;;;;;15.63;14.02;;;7.30;99.90;;;;;;5019188;29;20042;-72
2024/01/04 05:45:26;;;;;;;13.82;12.43;;;7.30;99.90;;;;;;5015173;29;20044;-70
2024/01/04 05:47:57;;;;;;;16.80;13.90;;;7.40;99.90;;;;;;5018523;29;20086;-70
2024/01/04 05:50:28;;;;;;;15.50;14.00;;;7.30;99.90;;;;;;5016411;29;20455;-71
2024/01/04 05:52:59;;;;;;;15.05;13.73;;;7.30;99.90;;;;;;5013501;29;20041;-70
2024/01/04 05:55:30;;;;;;;14.50;13.00;;;7.40;99.90;;;;;;5016064;29;20030;-69
2024/01/04 05:58:01;;;;;;;18.10;16.17;;;7.40;99.90;;;;;;5023106;29;20120;-70
2024/01/04 06:00:32;;;;;;;15.45;13.82;;;7.60;99.90;;;;;;5026129;29;20105;-70
2024/01/04 06:03:03;;;;;;;21.50;15.68;;;7.30;99.90;;;;;;5015748;29;20500;-69
2024/01/04 06:05:34;;;;;;;15.65;14.15;;;7.30;99.90;;;;;;5007359;29;20390;-74
2024/01/04 06:08:06;;;;;;;18.23;16.83;;;7.30;99.90;;;;;;5006836;29;20061;-68
2024/01/04 06:10:37;;;;;;;17.92;16.27;;;7.30;99.90;;;;;;5005824;29;20037;-69
2024/01/04 06:13:07;;;;;;;21.35;19.05;;;7.30;99.90;;;;;;5020205;29;20450;-72
2024/01/04 06:15:38;;;;;;;24.33;21.98;;;7.60;99.90;;;;;;5014347;29;20504;-72
2024/01/04 06:18:09;;;;;;;18.38;16.55;;;7.90;99.90;;;;;;5014892;29;20052;-72
2024/01/04 06:20:40;;;;;;;16.95;14.85;;;8.00;99.90;;;;;;5026147;29;20022;-73
2024/01/04 06:23:11;;;;;;;16.83;15.13;;;8.10;99.90;;;;;;5025906;29;20021;-70
2024/01/04 06:25:42;;;;;;;18.70;16.77;;;8.30;99.90;;;;;;5019402;29;20090;-71
2024/01/04 06:28:13;;;;;;;20.75;16.25;;;8.30;99.90;;;;;;5024094;29;20025;-71
2024/01/04 06:30:43;;;;;;;20.27;13.43;;;8.50;99.90;;;;;;5025444;29;20838;-70
2024/01/04 06:33:15;;;;;;;13.23;11.82;;;8.70;99.90;;;;;;5026118;29;20037;-72
2024/01/04 06:35:46;;;;;;;15.70;12.32;;;9.00;99.90;;;;;;5025217;29;20097;-75
2024/01/04 06:38:17;;;;;;;17.38;11.55;;;9.10;99.90;;;;;;5020627;29;20041;-77
2024/01/04 06:40:48;;;;;;;17.77;12.57;;;9.10;99.90;;;;;;5018325;29;20026;-71
2024/01/04 06:43:20;;;;;;;17.45;13.90;;;9.30;99.90;;;;;;5014540;29;20049;-74
2024/01/04 06:45:51;;;;;;;21.92;16.85;;;9.20;99.90;;;;;;5011734;29;20077;-70
2024/01/04 06:48:24;;;;;;;16.13;11.95;;;9.30;99.90;;;;;;5011122;29;20054;-71
2024/01/04 06:50:55;;;;;;;15.52;13.27;;;9.50;99.90;;;;;;5013321;29;20102;-72
2024/01/04 06:53:26;;;;;;;17.40;10.85;;;9.70;99.90;;;;;;5011229;29;20500;-73
2024/01/04 06:55:57;;;;;;;14.55;10.38;;;9.90;99.90;;;;;;5006653;29;20030;-70
2024/01/04 06:58:28;;;;;;;20.38;10.48;;;10.30;99.90;;;;;;5006547;29;20141;-71
2024/01/04 07:00:59;;;;;;;17.15;10.90;;;10.70;99.90;;;;;;5013054;29;20030;-71
2024/01/04 07:03:30;;;;;;;13.20;10.43;;;10.90;99.90;;;;;;5014963;29;20375;-70
2024/01/04 07:06:02;;;;;;;15.52;9.57;;;11.00;99.90;;;;;;5015119;29;20037;-72
2024/01/04 07:08:33;;;;;;;10.77;9.10;;;11.30;99.90;;;;;;5007408;29;20058;-75
2024/01/04 07:11:05;;;;;;;13.05;9.90;;;11.50;99.90;;;;;;5006636;29;20026;-75
2024/01/04 07:13:36;;;;;;;13.27;8.45;;;11.50;99.90;;;;;;5006545;29;20562;-70
2024/01/04 07:16:07;;;;;;;18.85;9.65;;;11.80;99.90;;;;;;5006647;29;20113;-71
2024/01/04 07:18:38;;;;;;;13.95;11.43;;;12.00;99.90;;;;;;5006430;29;20692;-72
2024/01/04 07:21:09;;;;;;;14.52;13.00;;;12.20;99.90;;;;;;5006695;29;20037;-75
2024/01/04 07:23:40;;;;;;;14.35;9.13;;;12.40;99.90;;;;;;5005217;29;20030;-71
2024/01/04 07:26:11;;;;;;;11.10;9.82;;;12.50;99.90;;;;;;5006098;29;20026;-74
2024/01/04 07:28:43;;;;;;;11.27;10.02;;;12.70;99.90;;;;;;5006149;29;20078;-74
2024/01/04 07:31:13;;;;;;;12.13;10.57;;;12.80;99.90;;;;;;5005833;29;20094;-72
2024/01/04 07:33:44;;;;;;;11.75;9.27;;;12.90;99.90;;;;;;5006053;29;20026;-76
2024/01/04 07:36:15;;;;;;;12.13;8.75;;;13.10;99.90;;;;;;5005171;29;20040;-74
2024/01/04 07:38:46;;;;;;;11.73;9.45;;;13.20;99.90;;;;;;5005363;29;20042;-71
2024/01/04 07:41:17;;;;;;;13.50;8.43;;;13.50;99.90;;;;;;5010026;29;20029;-71
2024/01/04 07:43:48;;;;;;;18.48;10.82;;;13.70;99.90;;;;;;5011890;29;20395;-77
2024/01/04 07:46:19;;;;;;;9.57;8.50;;;13.80;99.90;;;;;;5012283;29;20037;-72
2024/01/04 07:48:50;;;;;;;13.90;8.75;;;13.80;99.90;;;;;;5019614;29;20041;-76
2024/01/04 07:51:22;;;;;;;11.77;7.32;;;13.90;99.90;;;;;;5020931;29;20073;-75
2024/01/04 07:53:53;;;;;;;11.20;9.15;;;13.90;99.90;;;;;;5017013;29;20074;-77
2024/01/04 07:56:23;;;;;;;50.63;26.67;;;14.10;99.90;;;;;;5015367;29;20113;-75
2024/01/04 07:58:54;;;;;;;11.57;8.57;;;14.40;99.90;;;;;;5018788;29;20037;-77
2024/01/04 08:01:25;;;;;;;23.05;16.30;;;14.50;99.90;;;;;;5019116;29;20030;-71
2024/01/04 08:03:57;;;;;;;12.90;8.05;;;14.50;99.90;;;;;;5018400;29;20034;-71
2024/01/04 08:09:11;;;;;;;11.77;10.10;;;14.50;99.90;;;;;;5091478;23;20113;-69
2024/01/04 08:11:42;;;;;;;13.07;11.85;;;14.30;99.90;;;;;;5008239;29;20531;-70
2024/01/04 08:14:13;;;;;;;14.50;12.98;;;14.70;99.90;;;;;;5008585;29;20193;-70
2024/01/04 08:16:44;;;;;;;13.73;12.65;;;14.50;99.90;;;;;;5009121;29;20034;-72
2024/01/04 08:19:14;;;;;;;14.80;13.60;;;14.40;99.90;;;;;;5009070;29;20046;-75
2024/01/04 08:21:45;;;;;;;13.23;12.13;;;14.40;99.90;;;;;;5008774;29;20029;-70
2024/01/04 08:24:16;;;;;;;13.98;12.68;;;14.40;99.90;;;;;;5008827;29;20038;-70
2024/01/04 08:26:47;;;;;;;11.60;10.63;;;14.60;99.90;;;;;;5006969;29;20018;-70
2024/01/04 08:29:18;;;;;;;10.80;9.80;;;14.80;99.90;;;;;;5006824;29;20076;-76
2024/01/04 08:31:50;;;;;;;9.07;8.18;;;15.00;99.90;;;;;;5007874;29;20411;-72
2024/01/04 08:34:21;;;;;;;15.18;9.45;;;15.10;99.90;;;;;;5007508;29;20026;-73
2024/01/04 08:36:52;;;;;;;12.80;9.80;;;15.40;99.90;;;;;;5007123;29;20568;-73
2024/01/04 08:39:22;;;;;;;12.35;11.00;;;15.60;99.90;;;;;;5007789;29;20049;-70
2024/01/04 08:41:53;;;;;;;12.25;11.05;;;15.90;99.90;;;;;;5007813;29;20105;-70
2024/01/04 08:44:25;;;;;;;18.23;16.15;;;15.70;99.90;;;;;;5007804;29;20042;-73
2024/01/04 08:46:56;;;;;;;22.80;20.48;;;15.70;99.90;;;;;;5008682;29;20041;-69
2024/01/04 08:49:26;;;;;;;24.88;22.67;;;15.60;99.90;;;;;;5008515;29;20029;-69
2024/01/04 08:51:57;;;;;;;24.25;22.55;;;15.50;99.90;;;;;;5006855;29;20030;-69
2024/01/04 08:54:28;;;;;;;30.63;28.33;;;15.50;99.90;;;;;;5007490;29;20041;-71
2024/01/04 08:56:59;;;;;;;29.17;27.25;;;15.40;99.90;;;;;;5006184;29;20057;-69
2024/01/04 08:59:30;;;;;;;28.02;26.23;;;15.50;99.90;;;;;;5008618;29;20029;-69
2024/01/04 09:02:01;;;;;;;26.55;24.85;;;15.90;99.90;;;;;;5006776;29;20022;-69
2024/01/04 09:04:33;;;;;;;23.02;21.50;;;15.80;99.90;;;;;;5008405;29;20475;-72
2024/01/04 09:07:04;;;;;;;15.32;13.65;;;15.90;99.90;;;;;;5006760;29;20125;-71
2024/01/04 09:09:35;;;;;;;11.48;10.05;;;16.30;99.90;;;;;;5008282;29;20034;-73
2024/01/04 09:12:06;;;;;;;8.60;7.80;;;16.30;99.90;;;;;;5007314;29;20140;-69
2024/01/04 09:14:37;;;;;;;11.25;9.75;;;16.30;99.90;;;;;;5020732;29;20600;-70
2024/01/04 09:17:08;;;;;;;7.60;6.13;;;16.50;99.90;;;;;;5007645;29;20042;-71
2024/01/04 09:19:40;;;;;;;16.60;7.28;;;16.60;99.90;;;;;;5007955;29;20484;-73
2024/01/04 09:22:12;;;;;;;8.93;7.00;;;16.70;99.90;;;;;;5007541;29;20057;-70
2024/01/04 09:24:42;;;;;;;9.93;6.63;;;16.60;99.90;;;;;;5007391;29;20030;-72
2024/01/04 09:27:13;;;;;;;9.63;6.68;;;16.70;99.90;;;;;;5006683;29;20037;-73
2024/01/04 09:29:47;;;;;;;9.52;7.40;;;16.90;99.90;;;;;;5006669;29;20431;-69
2024/01/04 09:32:18;;;;;;;13.07;8.02;;;16.90;99.90;;;;;;5006913;29;20036;-73
2024/01/04 09:34:50;;;;;;;10.05;8.32;;;17.00;99.90;;;;;;5006845;29;20053;-70
2024/01/04 09:37:21;;;;;;;13.98;9.70;;;16.80;99.90;;;;;;5472873;23;21171;-72
2024/01/04 09:39:51;;;;;;;27.55;11.57;;;16.90;99.90;;;;;;5024121;29;20653;-73
2024/01/04 09:42:23;;;;;;;11.38;9.45;;;17.00;99.90;;;;;;5026635;29;20081;-69
2024/01/04 09:44:55;;;;;;;11.13;8.82;;;17.10;99.90;;;;;;5027052;29;20057;-73
2024/01/04 09:47:29;;;;;;;10.48;8.10;;;16.90;99.90;;;;;;5026503;29;20100;-68
2024/01/04 09:50:01;;;;;;;10.55;8.70;;;17.10;99.90;;;;;;5026660;29;20029;-69
2024/01/04 09:52:33;;;;;;;9.48;8.68;;;16.70;99.90;;;;;;5026456;29;20034;-71
2024/01/04 09:55:06;;;;;;;13.68;9.18;;;16.90;99.90;;;;;;5020108;29;20467;-70
2024/01/04 09:57:37;;;;;;;16.17;8.38;;;17.20;99.90;;;;;;5006142;29;20041;-72
2024/01/04 10:00:09;;;;;;;9.05;8.00;;;17.00;99.90;;;;;;5007524;29;20532;-74
2024/01/04 10:02:45;;;;;;;9.85;8.90;;;16.90;99.90;;;;;;5021735;29;20116;-71
2024/01/04 10:05:16;;;;;;;10.57;9.55;;;16.90;99.90;;;;;;5026213;29;20026;-69
2024/01/04 10:08:36;;;;;;;12.15;10.82;;;16.70;99.90;;;;;;5026136;29;20037;-69
2024/01/04 10:11:17;;;;;;;12.13;10.93;;;17.10;99.90;;;;;;5061827;29;20032;-68
2024/01/04 10:13:50;;;;;;;11.93;10.68;;;17.10;99.90;;;;;;5043056;29;20041;-72
2024/01/04 10:16:21;;;;;;;12.88;11.80;;;17.10;99.90;;;;;;5043464;29;20081;-68
2024/01/04 10:18:56;;;;;;;13.10;11.80;;;17.00;99.90;;;;;;5042937;29;20056;-72
2024/01/04 10:21:45;;;;;;;28.05;25.45;;;;;;;;;;5031018;29;20025;-90
2024/01/04 10:24:23;;;;;;;14.75;13.63;;;;;;;;;;5030704;29;20080;-86
2024/01/04 10:26:58;;;;;;;9.10;7.68;;;;;;;;;;5030583;29;20555;-86
2024/01/04 10:29:29;;;;;;;10.35;9.15;;;;;;;;;;5030466;29;20140;-86
2024/01/04 10:32:03;;;;;;;9.90;7.22;;;;;;;;;;5030939;29;20029;-89
2024/01/04 10:34:35;;;;;;;12.50;9.05;;;;;;;;;;5030507;29;20041;-86
2024/01/04 10:37:13;;;;;;;10.23;8.90;;;;;;;;;;5045790;29;20029;-86
2024/01/04 10:40:01;;;;;;;12.68;7.60;;;;;;;;;;5045827;29;20061;-88
2024/01/04 10:42:32;;;;;;;10.63;9.43;;;;;;;;;;5013030;29;20038;-92
2024/01/04 10:45:04;;;;;;;11.50;7.90;;;;;;;;;;5009156;29;20037;-87
2024/01/04 10:47:35;;;;;;;10.30;7.50;;;;;;;;;;5008513;29;20040;-74
2024/01/04 10:50:11;;;;;;;21.77;8.80;;;;;;;;;;5007155;29;20037;-78
2024/01/04 10:52:45;;;;;;;12.82;11.55;;;17.90;99.90;;;;;;5007117;29;20042;-75
2024/01/04 10:55:20;;;;;;;9.27;7.82;;;;;;;;;;5007242;29;20045;-74
2024/01/04 10:57:51;;;;;;;9.38;8.32;;;17.90;99.90;;;;;;5006890;29;20041;-73
2024/01/04 11:00:23;;;;;;;25.55;8.27;;;17.40;99.90;;;;;;5006957;29;20090;-76
2024/01/04 11:02:56;;;;;;;11.27;8.27;;;17.10;99.90;;;;;;5007912;29;20018;-74
2024/01/04 11:05:28;;;;;;;10.73;9.15;;;17.30;99.90;;;;;;5008613;29;20038;-74
2024/01/04 11:07:59;;;;;;;10.20;8.13;;;17.70;99.90;;;;;;5008823;29;20041;-75
2024/01/04 11:10:32;;;;;;;10.93;8.48;;;17.80;99.90;;;;;;5007734;29;20037;-75
2024/01/04 11:13:03;;;;;;;11.63;9.77;;;18.00;99.90;;;;;;5009389;29;20018;-74
2024/01/04 11:15:34;;;;;;;12.75;10.23;;;17.90;99.90;;;;;;5009994;29;20387;-76
2024/01/04 11:18:14;;;;;;;13.77;12.55;;;17.70;99.90;;;;;;5011360;29;20038;-76
2024/01/04 11:21:04;;;;;;;73.57;18.83;;;17.70;99.90;;;;;;5012802;29;20034;-75
2024/01/04 11:24:03;;;;;;;15.02;13.27;;;17.60;99.90;;;;;;5012370;29;20436;-77
2024/01/04 11:26:57;;;;;;;14.07;12.70;;;17.20;99.90;;;;;;5005756;29;20090;-77
2024/01/04 11:29:34;;;;;;;15.45;12.93;;;17.20;99.90;;;;;;4993275;29;20023;-76
2024/01/04 11:32:07;;;;;;;63.92;17.05;;;17.30;99.90;;;;;;5007796;29;20060;-76
2024/01/04 11:34:45;;;;;;;16.35;14.20;;;17.30;99.90;;;;;;4997364;29;20030;-76
2024/01/04 11:37:23;;;;;;;15.90;14.52;;;17.10;99.90;;;;;;5000016;29;20403;-76
2024/01/04 11:40:00;;;;;;;17.17;15.57;;;17.20;99.90;;;;;;4999528;29;20498;-77
2024/01/04 11:42:31;;;;;;;17.75;16.23;;;17.60;99.90;;;;;;5012221;29;20026;-76
2024/01/04 11:45:06;;;;;;;20.73;18.92;;;17.60;99.90;;;;;;5009417;29;20032;-76
2024/01/04 11:47:39;;;;;;;21.73;19.85;;;17.20;99.90;;;;;;4993917;29;20087;-76
2024/01/04 11:50:23;;;;;;;22.33;20.55;;;17.20;99.90;;;;;;4998633;29;20117;-76
2024/01/04 11:53:05;;;;;;;22.98;20.85;;;17.40;99.90;;;;;;5004707;29;20034;-76
2024/01/04 11:55:36;;;;;;;23.67;21.83;;;17.40;99.90;;;;;;5007659;29;20360;-76
2024/01/04 11:58:09;;;;;;;24.25;22.27;;;17.10;99.90;;;;;;5002977;29;20090;-76
2024/01/04 12:00:47;;;;;;;24.80;22.92;;;17.30;99.90;;;;;;4991883;29;20391;-76
2024/01/04 12:03:21;;;;;;;23.17;21.35;;;17.40;99.90;;;;;;4992915;29;20479;-76
2024/01/04 12:05:54;;;;;;;41.63;22.25;;;17.10;99.90;;;;;;4993151;29;20523;-77
2024/01/04 12:08:29;;;;;;;23.17;21.17;;;17.10;99.90;;;;;;4992753;29;20035;-76
2024/01/04 12:11:03;;;;;;;20.40;18.33;;;17.40;99.90;;;;;;4992919;29;20061;-76
2024/01/04 12:13:34;;;;;;;23.25;17.98;;;17.80;99.90;;;;;;4991464;29;20480;-76
2024/01/04 12:16:06;;;;;;;19.92;18.02;;;17.80;99.90;;;;;;4993078;29;20037;-76
2024/01/04 12:18:37;;;;;;;22.52;20.60;;;17.70;99.90;;;;;;4991814;29;20034;-76
2024/01/04 12:21:10;;;;;;;20.25;18.58;;;17.90;99.90;;;;;;4991375;29;20033;-76
2024/01/04 12:23:41;;;;;;;19.48;17.65;;;17.50;99.90;;;;;;4990488;29;20041;-76
2024/01/04 12:26:13;;;;;;;20.35;18.60;;;17.90;99.90;;;;;;5005707;29;20060;-77
2024/01/04 12:28:44;;;;;;;18.65;17.05;;;17.50;99.90;;;;;;5009560;29;20432;-77
2024/01/04 12:31:16;;;;;;;16.75;15.07;;;17.80;99.90;;;;;;4991349;29;20038;-77
2024/01/04 12:33:49;;;;;;;15.43;14.02;;;17.90;99.90;;;;;;4991562;29;20087;-75
2024/01/04 12:36:23;;;;;;;16.63;15.15;;;17.40;99.90;;;;;;4992289;29;20501;-76
2024/01/04 12:39:05;;;;;;;14.55;12.82;;;17.90;99.90;;;;;;5002811;29;20098;-76
2024/01/04 12:41:39;;;;;;;16.13;14.82;;;16.60;99.90;;;;;;5011023;29;20094;-76
2024/01/04 12:44:11;;;;;;;15.20;13.70;;;17.50;99.90;;;;;;5011220;29;20141;-77
2024/01/04 12:46:44;;;;;;;16.88;15.43;;;18.00;99.90;;;;;;5027816;29;20021;-78
2024/01/04 12:49:15;;;;;;;19.25;17.65;;;17.40;99.90;;;;;;5030270;29;20025;-78
2024/01/04 12:51:46;;;;;;;26.60;24.30;;;16.60;99.90;;;;;;5029031;29;20033;-76
2024/01/04 12:54:17;;;;;;;16.30;14.73;;;16.80;99.90;;;;;;5030534;29;20029;-76
2024/01/04 12:56:52;;;;;;;15.15;13.65;;;17.20;99.90;;;;;;5030230;29;20062;-75
2024/01/04 12:59:23;;;;;;;14.40;13.02;;;;;;;;;;5030200;29;20037;-76
2024/01/04 13:01:54;;;;;;;17.48;12.93;;;16.50;99.90;;;;;;5030215;29;20030;-76
2024/01/04 13:04:25;;;;;;;14.25;12.93;;;16.60;99.90;;;;;;5030336;29;20409;-76